createdAt,value
2022-10-28T00:00:32.069Z,0.00
2022-10-28T00:01:32.211Z,0.00
2022-10-28T00:02:32.180Z,0.00
2022-10-28T00:03:32.128Z,0.00
2022-10-28T00:04:32.154Z,0.00
2022-10-28T00:05:32.170Z,0.00
2022-10-28T00:06:32.260Z,0.00
2022-10-28T00:07:32.227Z,0.00
2022-10-28T00:08:32.251Z,0.00
2022-10-28T00:09:32.284Z,0.00
2022-10-28T00:10:32.305Z,0.00
2022-10-28T00:11:32.349Z,0.00
2022-10-28T00:12:32.319Z,0.00
2022-10-28T00:13:32.337Z,0.00
2022-10-28T00:14:32.397Z,0.00
2022-10-28T00:15:32.356Z,0.00
2022-10-28T00:16:32.410Z,0.00
2022-10-28T00:17:32.379Z,0.00
2022-10-28T00:18:32.403Z,0.00
2022-10-28T00:19:32.447Z,0.00
2022-10-28T00:20:32.422Z,0.00
2022-10-28T00:21:32.414Z,0.00
2022-10-28T00:22:32.395Z,0.00
2022-10-28T00:23:32.418Z,0.00
2022-10-28T00:24:32.445Z,0.00
2022-10-28T00:25:32.470Z,0.00
2022-10-28T00:26:32.536Z,0.00
2022-10-28T00:27:32.506Z,0.00
2022-10-28T00:28:32.524Z,0.00
2022-10-28T00:29:32.565Z,0.00
2022-10-28T00:30:32.608Z,0.00
2022-10-28T00:31:32.581Z,0.00
2022-10-28T00:32:32.558Z,0.00
2022-10-28T00:33:32.596Z,0.00
2022-10-28T00:34:32.576Z,0.00
2022-10-28T00:35:32.596Z,0.00
2022-10-28T00:36:32.638Z,0.00
2022-10-28T00:37:32.633Z,0.00
2022-10-28T00:38:32.662Z,0.00
2022-10-28T00:39:32.644Z,0.00
2022-10-28T00:40:32.667Z,0.00
2022-10-28T00:41:32.760Z,0.00
2022-10-28T00:42:32.728Z,0.00
2022-10-28T00:43:32.760Z,0.00
2022-10-28T00:44:32.791Z,0.00
2022-10-28T00:45:32.832Z,0.00
2022-10-28T00:46:32.868Z,0.00
2022-10-28T00:47:32.871Z,0.00
2022-10-28T00:48:32.950Z,0.00
2022-10-28T00:49:32.920Z,0.00
2022-10-28T00:50:32.892Z,0.00
2022-10-28T00:51:32.921Z,0.00
2022-10-28T00:52:32.938Z,0.00
2022-10-28T00:53:32.968Z,0.00
2022-10-28T00:54:32.952Z,0.00
2022-10-28T00:55:32.992Z,0.00
2022-10-28T00:56:33.011Z,0.00
2022-10-28T00:57:33.035Z,0.00
2022-10-28T00:58:33.104Z,0.00
2022-10-28T00:59:33.098Z,0.00
2022-10-28T01:00:33.056Z,0.00
2022-10-28T01:01:33.227Z,0.00
2022-10-28T01:02:33.191Z,0.00
2022-10-28T01:03:33.117Z,0.00
2022-10-28T01:04:33.124Z,0.00
2022-10-28T01:05:33.164Z,0.00
2022-10-28T01:06:33.238Z,0.00
2022-10-28T01:07:33.262Z,0.00
2022-10-28T01:08:33.257Z,0.00
2022-10-28T01:09:33.273Z,0.00
2022-10-28T01:10:33.220Z,0.00
2022-10-28T01:11:33.223Z,0.00
2022-10-28T01:12:33.229Z,0.00
2022-10-28T01:13:33.263Z,0.00
2022-10-28T01:14:33.233Z,0.00
2022-10-28T01:15:33.258Z,0.00
2022-10-28T01:16:33.277Z,0.00
2022-10-28T01:17:33.304Z,0.00
2022-10-28T01:18:33.337Z,0.00
2022-10-28T01:19:33.346Z,0.00
2022-10-28T01:20:36.196Z,0.00
2022-10-28T01:21:33.387Z,0.00
2022-10-28T01:22:33.530Z,0.00
2022-10-28T01:23:33.409Z,0.00
2022-10-28T01:24:33.443Z,0.00
2022-10-28T01:25:33.431Z,0.00
2022-10-28T01:26:33.463Z,0.00
2022-10-28T01:27:33.428Z,0.00
2022-10-28T01:28:33.439Z,0.00
2022-10-28T01:29:33.737Z,0.00
2022-10-28T01:30:33.475Z,0.00
2022-10-28T01:31:33.515Z,0.00
2022-10-28T01:32:33.519Z,0.00
2022-10-28T01:33:33.539Z,0.00
2022-10-28T01:34:33.644Z,0.00
2022-10-28T01:35:33.729Z,0.00
2022-10-28T01:36:33.582Z,0.00
2022-10-28T01:37:33.610Z,0.00
2022-10-28T01:38:33.576Z,0.00
2022-10-28T01:39:33.616Z,0.00
2022-10-28T01:40:33.584Z,0.00
2022-10-28T01:41:33.590Z,0.00
2022-10-28T01:42:33.604Z,0.00
2022-10-28T01:43:33.633Z,0.00
2022-10-28T01:44:33.666Z,0.00
2022-10-28T01:45:33.692Z,0.00
2022-10-28T01:46:33.669Z,0.00
2022-10-28T01:47:33.655Z,0.00
2022-10-28T01:48:33.774Z,0.00
2022-10-28T01:49:33.688Z,0.00
2022-10-28T01:50:33.690Z,0.00
2022-10-28T01:51:33.703Z,0.00
2022-10-28T01:52:33.777Z,0.00
2022-10-28T01:53:33.748Z,0.00
2022-10-28T01:54:33.734Z,0.00
2022-10-28T01:55:33.769Z,0.00
2022-10-28T01:56:33.790Z,0.00
2022-10-28T01:57:33.792Z,0.00
2022-10-28T01:58:33.764Z,0.00
2022-10-28T01:59:33.772Z,0.00
2022-10-28T02:00:33.870Z,0.00
2022-10-28T02:01:34.079Z,0.00
2022-10-28T02:02:33.828Z,0.00
2022-10-28T02:03:33.854Z,0.00
2022-10-28T02:04:33.887Z,0.00
2022-10-28T02:05:33.912Z,0.00
2022-10-28T02:06:33.978Z,0.00
2022-10-28T02:07:33.937Z,0.00
2022-10-28T02:08:33.951Z,0.00
2022-10-28T02:09:33.978Z,0.00
2022-10-28T02:10:33.981Z,0.00
2022-10-28T02:11:33.982Z,0.00
2022-10-28T02:12:33.998Z,0.00
2022-10-28T02:13:34.016Z,0.00
2022-10-28T02:14:34.042Z,0.00
2022-10-28T02:15:34.049Z,0.00
2022-10-28T02:16:34.060Z,0.00
2022-10-28T02:17:34.098Z,0.00
2022-10-28T02:18:34.117Z,0.00
2022-10-28T02:19:34.187Z,0.00
2022-10-28T02:20:34.143Z,0.00
2022-10-28T02:21:34.174Z,0.00
2022-10-28T02:22:34.225Z,0.00
2022-10-28T02:23:34.237Z,0.00
2022-10-28T02:24:34.204Z,0.00
2022-10-28T02:25:34.236Z,0.00
2022-10-28T02:26:34.258Z,0.00
2022-10-28T02:27:34.270Z,0.00
2022-10-28T02:28:34.282Z,0.00
2022-10-28T02:29:34.317Z,0.00
2022-10-28T02:30:34.331Z,0.00
2022-10-28T02:31:34.358Z,0.00
2022-10-28T02:32:34.405Z,0.00
2022-10-28T02:33:34.726Z,0.00
2022-10-28T02:34:34.372Z,0.00
2022-10-28T02:35:34.399Z,0.00
2022-10-28T02:36:34.414Z,0.00
2022-10-28T02:37:34.414Z,0.00
2022-10-28T02:38:34.492Z,0.00
2022-10-28T02:39:34.462Z,0.00
2022-10-28T02:40:34.474Z,0.00
2022-10-28T02:41:34.749Z,0.00
2022-10-28T02:42:34.528Z,0.00
2022-10-28T02:43:34.570Z,0.00
2022-10-28T02:44:34.550Z,0.00
2022-10-28T02:45:34.584Z,0.00
2022-10-28T02:46:34.602Z,0.00
2022-10-28T02:47:34.618Z,0.00
2022-10-28T02:48:34.651Z,0.00
2022-10-28T02:49:34.695Z,0.00
2022-10-28T02:50:34.662Z,0.00
2022-10-28T02:51:34.668Z,0.00
2022-10-28T02:52:34.686Z,0.00
2022-10-28T02:53:34.727Z,0.00
2022-10-28T02:54:34.733Z,0.00
2022-10-28T02:55:34.681Z,0.00
2022-10-28T02:56:34.713Z,0.00
2022-10-28T02:57:34.748Z,0.00
2022-10-28T02:58:34.750Z,0.00
2022-10-28T02:59:34.720Z,0.00
2022-10-28T03:00:34.728Z,0.00
2022-10-28T03:01:34.868Z,0.00
2022-10-28T03:02:34.756Z,0.00
2022-10-28T03:03:34.785Z,0.00
2022-10-28T03:04:34.803Z,0.00
2022-10-28T03:05:34.825Z,0.00
2022-10-28T03:06:34.878Z,0.00
2022-10-28T03:07:34.836Z,0.00
2022-10-28T03:08:34.880Z,0.00
2022-10-28T03:09:34.849Z,0.00
2022-10-28T03:10:34.902Z,0.00
2022-10-28T03:11:34.952Z,0.00
2022-10-28T03:12:34.909Z,0.00
2022-10-28T03:13:34.949Z,0.00
2022-10-28T03:14:34.912Z,0.00
2022-10-28T03:15:34.928Z,0.00
2022-10-28T03:16:34.958Z,0.00
2022-10-28T03:17:34.978Z,0.00
2022-10-28T03:18:35.017Z,0.00
2022-10-28T03:19:34.994Z,0.00
2022-10-28T03:20:35.021Z,0.00
2022-10-28T03:21:35.033Z,0.00
2022-10-28T03:22:35.086Z,0.00
2022-10-28T03:23:35.051Z,0.00
2022-10-28T03:24:35.069Z,0.00
2022-10-28T03:25:35.113Z,0.00
2022-10-28T03:26:35.104Z,0.00
2022-10-28T03:27:35.122Z,0.00
2022-10-28T03:28:35.147Z,0.00
2022-10-28T03:29:35.166Z,0.00
2022-10-28T03:30:35.198Z,0.00
2022-10-28T03:31:35.237Z,0.00
2022-10-28T03:32:35.242Z,0.00
2022-10-28T03:33:35.258Z,0.00
2022-10-28T03:34:35.265Z,0.00
2022-10-28T03:35:35.280Z,0.00
2022-10-28T03:36:35.299Z,0.00
2022-10-28T03:37:35.317Z,0.00
2022-10-28T03:38:35.313Z,0.00
2022-10-28T03:39:35.326Z,0.00
2022-10-28T03:40:35.354Z,0.00
2022-10-28T03:41:35.397Z,0.00
2022-10-28T03:42:37.635Z,0.00
2022-10-28T03:43:35.423Z,0.00
2022-10-28T03:44:35.450Z,0.00
2022-10-28T03:45:35.478Z,0.00
2022-10-28T03:46:36.226Z,0.00
2022-10-28T03:47:35.553Z,0.00
2022-10-28T03:48:35.562Z,0.00
2022-10-28T03:49:35.576Z,0.00
2022-10-28T03:50:35.605Z,0.00
2022-10-28T03:51:35.635Z,0.00
2022-10-28T03:52:35.652Z,0.00
2022-10-28T03:53:35.691Z,0.00
2022-10-28T03:54:35.706Z,0.00
2022-10-28T03:55:35.703Z,0.00
2022-10-28T03:56:35.906Z,0.00
2022-10-28T03:57:35.723Z,0.00
2022-10-28T03:58:40.106Z,0.00
2022-10-28T03:59:35.762Z,0.00
2022-10-28T04:00:35.819Z,0.00
2022-10-28T04:01:35.909Z,0.00
2022-10-28T04:02:35.770Z,0.00
2022-10-28T04:03:35.781Z,0.00
2022-10-28T04:04:35.792Z,0.00
2022-10-28T04:05:35.815Z,0.00
2022-10-28T04:06:35.853Z,0.00
2022-10-28T04:07:35.876Z,0.00
2022-10-28T04:08:35.889Z,0.00
2022-10-28T04:09:35.891Z,0.00
2022-10-28T04:10:35.903Z,0.00
2022-10-28T04:11:35.916Z,0.00
2022-10-28T04:12:35.962Z,0.00
2022-10-28T04:13:35.932Z,0.00
2022-10-28T04:14:35.965Z,0.00
2022-10-28T04:15:35.971Z,0.00
2022-10-28T04:16:35.992Z,0.00
2022-10-28T04:17:35.968Z,0.00
2022-10-28T04:18:36.005Z,0.00
2022-10-28T04:19:36.028Z,0.00
2022-10-28T04:20:36.031Z,0.00
2022-10-28T04:21:36.055Z,0.00
2022-10-28T04:22:36.040Z,0.00
2022-10-28T04:23:36.056Z,0.00
2022-10-28T04:24:36.081Z,0.00
2022-10-28T04:25:36.117Z,0.00
2022-10-28T04:26:36.140Z,0.00
2022-10-28T04:27:36.124Z,0.00
2022-10-28T04:28:36.143Z,0.00
2022-10-28T04:29:36.148Z,0.00
2022-10-28T04:30:36.212Z,0.00
2022-10-28T04:31:36.185Z,0.00
2022-10-28T04:32:36.207Z,0.00
2022-10-28T04:33:36.220Z,0.00
2022-10-28T04:34:36.229Z,0.00
2022-10-28T04:35:36.258Z,0.00
2022-10-28T04:36:36.277Z,0.00
2022-10-28T04:37:36.287Z,0.00
2022-10-28T04:38:36.311Z,0.00
2022-10-28T04:39:36.417Z,0.00
2022-10-28T04:40:36.336Z,0.00
2022-10-28T04:41:36.362Z,0.00
2022-10-28T04:42:36.383Z,0.00
2022-10-28T04:43:36.401Z,0.00
2022-10-28T04:44:36.429Z,0.00
2022-10-28T04:45:36.446Z,0.00
2022-10-28T04:46:36.460Z,0.00
2022-10-28T04:47:36.420Z,0.00
2022-10-28T04:48:36.431Z,0.00
2022-10-28T04:49:38.828Z,0.00
2022-10-28T04:50:36.626Z,0.00
2022-10-28T04:51:36.478Z,0.00
2022-10-28T04:52:36.426Z,0.00
2022-10-28T04:53:36.462Z,0.00
2022-10-28T04:54:36.449Z,0.00
2022-10-28T04:55:36.457Z,0.00
2022-10-28T04:56:36.469Z,0.00
2022-10-28T04:57:36.494Z,0.00
2022-10-28T04:58:36.513Z,0.00
2022-10-28T04:59:36.552Z,0.00
2022-10-28T05:02:02.735Z,0.00
2022-10-28T05:03:02.502Z,0.00
2022-10-28T05:04:02.504Z,0.00
2022-10-28T05:05:02.511Z,0.00
2022-10-28T05:06:02.506Z,0.00
2022-10-28T05:07:02.526Z,0.00
2022-10-28T05:08:02.534Z,0.00
2022-10-28T05:09:02.547Z,0.00
2022-10-28T05:10:02.548Z,0.00
2022-10-28T05:11:02.555Z,0.00
2022-10-28T05:12:02.554Z,0.00
2022-10-28T05:13:02.560Z,0.00
2022-10-28T05:14:02.568Z,0.00
2022-10-28T05:15:02.606Z,0.00
2022-10-28T05:16:02.626Z,0.00
2022-10-28T05:17:02.646Z,0.00
2022-10-28T05:18:02.694Z,0.00
2022-10-28T05:19:02.653Z,0.00
2022-10-28T05:20:02.673Z,0.00
2022-10-28T05:21:02.672Z,0.00
2022-10-28T05:22:02.681Z,0.00
2022-10-28T05:23:02.722Z,0.00
2022-10-28T05:24:02.737Z,0.00
2022-10-28T05:25:02.751Z,0.00
2022-10-28T05:26:02.787Z,0.00
2022-10-28T05:27:02.802Z,0.00
2022-10-28T05:28:02.833Z,0.00
2022-10-28T05:29:02.848Z,0.00
2022-10-28T05:30:02.829Z,0.00
2022-10-28T05:31:02.839Z,0.00
2022-10-28T05:32:02.858Z,0.00
2022-10-28T05:33:02.930Z,0.00
2022-10-28T05:34:02.910Z,0.00
2022-10-28T05:35:02.947Z,0.00
2022-10-28T05:36:02.914Z,0.00
2022-10-28T05:37:02.947Z,0.00
2022-10-28T05:38:02.984Z,0.00
2022-10-28T05:39:03.023Z,0.00
2022-10-28T05:40:03.020Z,0.00
2022-10-28T05:41:03.042Z,0.00
2022-10-28T05:42:03.024Z,0.00
2022-10-28T05:43:03.041Z,1.00
2022-10-28T05:44:03.065Z,1.00
2022-10-28T05:45:03.114Z,1.00
2022-10-28T05:46:03.089Z,1.00
2022-10-28T05:47:03.095Z,1.00
2022-10-28T05:48:03.122Z,2.00
2022-10-28T05:49:03.152Z,1.00
2022-10-28T05:50:03.685Z,2.00
2022-10-28T05:51:03.191Z,3.00
2022-10-28T05:52:03.238Z,2.00
2022-10-28T05:53:03.246Z,3.00
2022-10-28T05:54:03.270Z,3.00
2022-10-28T05:55:03.679Z,4.00
2022-10-28T05:56:03.284Z,4.00
2022-10-28T05:57:03.349Z,5.00
2022-10-28T05:58:03.326Z,5.00
2022-10-28T05:59:03.348Z,6.00
2022-10-28T06:00:03.378Z,6.00
2022-10-28T06:01:03.437Z,6.00
2022-10-28T06:02:03.387Z,8.00
2022-10-28T06:03:03.405Z,8.00
2022-10-28T06:04:03.557Z,9.00
2022-10-28T06:05:03.428Z,10.00
2022-10-28T06:06:03.687Z,11.00
2022-10-28T06:07:03.470Z,11.00
2022-10-28T06:08:03.451Z,12.00
2022-10-28T06:09:03.477Z,14.00
2022-10-28T06:10:03.539Z,14.00
2022-10-28T06:11:01.964Z,15.00
2022-10-28T06:12:02.008Z,16.00
2022-10-28T06:13:02.004Z,143.00
2022-10-28T06:14:02.018Z,181.00
2022-10-28T06:15:01.988Z,190.00
2022-10-28T06:16:02.100Z,194.00
2022-10-28T06:17:02.034Z,196.00
2022-10-28T06:18:02.013Z,198.00
2022-10-28T06:19:02.038Z,200.00
2022-10-28T06:20:02.097Z,200.00
2022-10-28T06:21:02.100Z,202.00
2022-10-28T06:22:02.174Z,202.00
2022-10-28T06:23:02.085Z,204.00
2022-10-28T06:24:02.133Z,206.00
2022-10-28T06:25:02.103Z,209.00
2022-10-28T06:26:02.203Z,212.00
2022-10-28T06:27:02.166Z,215.00
2022-10-28T06:28:04.748Z,219.00
2022-10-28T06:29:02.123Z,223.00
2022-10-28T06:30:02.124Z,225.00
2022-10-28T06:31:02.136Z,228.00
2022-10-28T06:32:02.211Z,232.00
2022-10-28T06:33:02.199Z,235.00
2022-10-28T06:34:02.164Z,60.00
2022-10-28T06:35:02.197Z,63.00
2022-10-28T06:36:02.229Z,66.00
2022-10-28T06:37:02.243Z,70.00
2022-10-28T06:38:04.854Z,72.00
2022-10-28T06:39:02.267Z,75.00
2022-10-28T06:40:02.272Z,77.00
2022-10-28T06:41:02.262Z,78.00
2022-10-28T06:42:02.288Z,79.00
2022-10-28T06:43:02.324Z,81.00
2022-10-28T06:44:02.384Z,85.00
2022-10-28T06:45:02.372Z,88.00
2022-10-28T06:46:02.396Z,90.00
2022-10-28T06:47:03.894Z,92.00
2022-10-28T06:48:03.896Z,97.00
2022-10-28T06:49:03.975Z,98.00
2022-10-28T06:50:03.936Z,100.00
2022-10-28T06:51:04.003Z,101.00
2022-10-28T06:52:04.003Z,104.00
2022-10-28T06:53:04.083Z,107.00
2022-10-28T06:54:04.084Z,111.00
2022-10-28T06:55:04.049Z,116.00
2022-10-28T06:56:04.196Z,119.00
2022-10-28T06:57:04.136Z,122.00
2022-10-28T06:58:04.132Z,124.00
2022-10-28T06:59:04.110Z,128.00
2022-10-28T07:00:04.139Z,130.00
2022-10-28T07:01:04.204Z,133.00
2022-10-28T07:02:04.337Z,135.00
2022-10-28T07:03:04.304Z,138.00
2022-10-28T07:04:04.198Z,132.00
2022-10-28T07:05:04.176Z,129.00
2022-10-28T07:06:04.255Z,132.00
2022-10-28T07:07:04.160Z,136.00
2022-10-28T07:08:04.213Z,257.00
2022-10-28T07:09:04.239Z,305.00
2022-10-28T07:10:04.259Z,329.00
2022-10-28T07:11:04.268Z,339.00
2022-10-28T07:12:05.701Z,346.00
2022-10-28T07:13:04.257Z,349.00
2022-10-28T07:14:04.281Z,353.00
2022-10-28T07:15:04.292Z,352.00
2022-10-28T07:16:04.312Z,351.00
2022-10-28T07:17:04.319Z,353.00
2022-10-28T07:18:04.331Z,349.00
2022-10-28T07:19:04.298Z,353.00
2022-10-28T07:20:04.334Z,350.00
2022-10-28T07:21:04.364Z,349.00
2022-10-28T07:22:04.383Z,340.00
2022-10-28T07:23:04.368Z,332.00
2022-10-28T07:24:04.394Z,330.00
2022-10-28T07:25:04.411Z,327.00
2022-10-28T07:26:04.475Z,320.00
2022-10-28T07:27:04.434Z,318.00
2022-10-28T07:28:04.502Z,318.00
2022-10-28T07:29:04.477Z,317.00
2022-10-28T07:30:04.495Z,315.00
2022-10-28T07:31:04.629Z,315.00
2022-10-28T07:32:04.529Z,315.00
2022-10-28T07:33:04.540Z,315.00
2022-10-28T07:34:04.550Z,142.00
2022-10-28T07:35:04.659Z,142.00
2022-10-28T07:36:04.607Z,145.00
2022-10-28T07:37:04.626Z,146.00
2022-10-28T07:38:04.656Z,147.00
2022-10-28T07:39:04.661Z,150.00
2022-10-28T07:40:04.673Z,153.00
2022-10-28T07:41:04.688Z,155.00
2022-10-28T07:42:04.798Z,157.00
2022-10-28T07:43:04.718Z,162.00
2022-10-28T07:44:04.737Z,167.00
2022-10-28T07:45:04.935Z,172.00
2022-10-28T07:46:04.793Z,177.00
2022-10-28T07:47:04.817Z,182.00
2022-10-28T07:48:04.801Z,188.00
2022-10-28T07:49:04.826Z,197.00
2022-10-28T07:50:04.842Z,211.00
2022-10-28T07:51:04.847Z,234.00
2022-10-28T07:52:04.868Z,234.00
2022-10-28T07:53:05.022Z,230.00
2022-10-28T07:54:04.885Z,239.00
2022-10-28T07:55:04.974Z,265.00
2022-10-28T07:56:04.914Z,299.00
2022-10-28T07:57:04.924Z,321.00
2022-10-28T07:58:04.941Z,336.00
2022-10-28T07:59:05.011Z,345.00
2022-10-28T08:00:04.971Z,345.00
2022-10-28T08:01:05.032Z,319.00
2022-10-28T08:02:05.040Z,329.00
2022-10-28T08:03:04.964Z,314.00
2022-10-28T08:04:04.991Z,307.00
2022-10-28T08:05:05.145Z,299.00
2022-10-28T08:06:04.999Z,306.00
2022-10-28T08:07:05.034Z,296.00
2022-10-28T08:08:05.017Z,313.00
2022-10-28T08:09:05.041Z,316.00
2022-10-28T08:10:05.057Z,335.00
2022-10-28T08:11:05.059Z,328.00
2022-10-28T08:12:05.078Z,327.00
2022-10-28T08:13:05.146Z,322.00
2022-10-28T08:14:05.139Z,317.00
2022-10-28T08:15:05.097Z,316.00
2022-10-28T08:16:05.126Z,311.00
2022-10-28T08:17:05.138Z,307.00
2022-10-28T08:18:05.151Z,308.00
2022-10-28T08:19:07.641Z,305.00
2022-10-28T08:20:05.190Z,290.00
2022-10-28T08:21:05.241Z,278.00
2022-10-28T08:22:05.217Z,280.00
2022-10-28T08:23:06.717Z,286.00
2022-10-28T08:24:05.239Z,268.00
2022-10-28T08:25:05.235Z,257.00
2022-10-28T08:26:05.271Z,251.00
2022-10-28T08:27:05.278Z,254.00
2022-10-28T08:28:05.321Z,262.00
2022-10-28T08:29:05.292Z,275.00
2022-10-28T08:30:05.328Z,290.00
2022-10-28T08:31:09.202Z,311.00
2022-10-28T08:32:05.383Z,333.00
2022-10-28T08:33:05.347Z,362.00
2022-10-28T08:34:05.366Z,379.00
2022-10-28T08:35:05.386Z,408.00
2022-10-28T08:36:05.435Z,523.00
2022-10-28T08:37:05.523Z,619.00
2022-10-28T08:38:05.440Z,647.00
2022-10-28T08:39:05.466Z,618.00
2022-10-28T08:40:05.491Z,593.00
2022-10-28T08:41:05.509Z,589.00
2022-10-28T08:42:05.525Z,544.00
2022-10-28T08:43:05.530Z,541.00
2022-10-28T08:44:05.536Z,526.00
2022-10-28T08:45:05.530Z,563.00
2022-10-28T08:46:05.555Z,566.00
2022-10-28T08:47:05.572Z,579.00
2022-10-28T08:48:05.545Z,588.00
2022-10-28T08:49:05.554Z,591.00
2022-10-28T08:50:05.583Z,600.00
2022-10-28T08:51:05.657Z,583.00
2022-10-28T08:52:05.619Z,587.00
2022-10-28T08:53:05.651Z,587.00
2022-10-28T08:54:05.668Z,589.00
2022-10-28T08:55:05.686Z,593.00
2022-10-28T08:56:05.722Z,592.00
2022-10-28T08:57:05.727Z,588.00
2022-10-28T08:58:05.770Z,584.00
2022-10-28T08:59:05.756Z,581.00
2022-10-28T09:00:05.793Z,586.00
2022-10-28T09:01:05.880Z,592.00
2022-10-28T09:02:05.853Z,589.00
2022-10-28T09:03:05.873Z,599.00
2022-10-28T09:04:05.846Z,615.00
2022-10-28T09:05:05.863Z,606.00
2022-10-28T09:06:05.889Z,611.00
2022-10-28T09:07:05.908Z,598.00
2022-10-28T09:08:05.920Z,577.00
2022-10-28T09:09:05.906Z,568.00
2022-10-28T09:10:05.911Z,559.00
2022-10-28T09:11:05.909Z,563.00
2022-10-28T09:12:05.949Z,585.00
2022-10-28T09:13:06.329Z,601.00
2022-10-28T09:14:06.082Z,443.00
2022-10-28T09:15:06.011Z,455.00
2022-10-28T09:16:05.994Z,452.00
2022-10-28T09:17:06.031Z,455.00
2022-10-28T09:18:06.055Z,481.00
2022-10-28T09:19:06.025Z,510.00
2022-10-28T09:20:06.003Z,487.00
2022-10-28T09:21:06.147Z,605.00
2022-10-28T09:22:06.034Z,612.00
2022-10-28T09:23:06.172Z,617.00
2022-10-28T09:24:06.087Z,632.00
2022-10-28T09:25:06.097Z,652.00
2022-10-28T09:26:06.139Z,694.00
2022-10-28T09:27:06.208Z,746.00
2022-10-28T09:28:06.184Z,769.00
2022-10-28T09:29:09.369Z,778.00
2022-10-28T09:30:06.154Z,780.00
2022-10-28T09:31:06.163Z,782.00
2022-10-28T09:32:06.169Z,739.00
2022-10-28T09:33:06.215Z,687.00
2022-10-28T09:34:06.200Z,646.00
2022-10-28T09:35:06.208Z,630.00
2022-10-28T09:36:06.255Z,699.00
2022-10-28T09:37:06.250Z,695.00
2022-10-28T09:38:06.261Z,666.00
2022-10-28T09:39:06.263Z,687.00
2022-10-28T09:40:06.274Z,541.00
2022-10-28T09:41:06.303Z,526.00
2022-10-28T09:42:06.354Z,520.00
2022-10-28T09:43:06.374Z,500.00
2022-10-28T09:44:06.354Z,501.00
2022-10-28T09:45:06.363Z,508.00
2022-10-28T09:46:06.356Z,533.00
2022-10-28T09:47:06.363Z,560.00
2022-10-28T09:48:06.346Z,718.00
2022-10-28T09:49:06.417Z,576.00
2022-10-28T09:50:06.402Z,725.00
2022-10-28T09:51:06.406Z,713.00
2022-10-28T09:52:06.460Z,515.00
2022-10-28T09:53:06.428Z,547.00
2022-10-28T09:54:06.432Z,566.00
2022-10-28T09:55:06.469Z,586.00
2022-10-28T09:57:06.514Z,645.00
2022-10-28T09:58:06.567Z,682.00
2022-10-28T09:59:06.547Z,715.00
2022-10-28T10:00:06.616Z,712.00
2022-10-28T10:01:06.584Z,691.00
2022-10-28T10:02:06.723Z,682.00
2022-10-28T10:03:06.588Z,702.00
2022-10-28T10:04:06.598Z,648.00
2022-10-28T10:05:06.613Z,601.00
2022-10-28T10:06:06.694Z,506.00
2022-10-28T10:07:06.666Z,489.00
2022-10-28T10:08:06.715Z,491.00
2022-10-28T10:09:06.691Z,662.00
2022-10-28T10:10:06.722Z,576.00
2022-10-28T10:11:06.754Z,623.00
2022-10-28T10:12:06.751Z,777.00
2022-10-28T10:13:06.797Z,781.00
2022-10-28T10:14:06.815Z,795.00
2022-10-28T10:15:06.837Z,811.00
2022-10-28T10:16:06.850Z,823.00
2022-10-28T10:17:06.896Z,812.00
2022-10-28T10:18:06.913Z,676.00
2022-10-28T10:19:06.912Z,758.00
2022-10-28T10:20:07.011Z,818.00
2022-10-28T10:21:06.973Z,643.00
2022-10-28T10:22:07.053Z,606.00
2022-10-28T10:23:07.026Z,627.00
2022-10-28T10:24:07.006Z,653.00
2022-10-28T10:25:07.065Z,470.00
2022-10-28T10:26:09.712Z,427.00
2022-10-28T10:27:07.056Z,455.00
2022-10-28T10:28:07.188Z,471.00
2022-10-28T10:29:07.084Z,657.00
2022-10-28T10:30:07.106Z,730.00
2022-10-28T10:31:07.137Z,740.00
2022-10-28T10:32:07.209Z,745.00
2022-10-28T10:33:07.183Z,734.00
2022-10-28T10:34:07.220Z,681.00
2022-10-28T10:35:07.228Z,642.00
2022-10-28T10:36:07.242Z,692.00
2022-10-28T10:37:07.261Z,663.00
2022-10-28T10:38:07.312Z,678.00
2022-10-28T10:39:07.267Z,672.00
2022-10-28T10:40:07.304Z,724.00
2022-10-28T10:41:07.418Z,723.00
2022-10-28T10:42:07.338Z,705.00
2022-10-28T10:43:13.699Z,709.00
2022-10-28T10:45:07.374Z,567.00
2022-10-28T10:46:07.405Z,763.00
2022-10-28T10:47:07.387Z,735.00
2022-10-28T10:48:07.415Z,641.00
2022-10-28T10:49:07.441Z,527.00
2022-10-28T10:50:07.468Z,612.00
2022-10-28T10:51:07.492Z,509.00
2022-10-28T10:52:07.504Z,479.00
2022-10-28T10:53:07.490Z,479.00
2022-10-28T10:54:07.493Z,483.00
2022-10-28T10:55:07.581Z,487.00
2022-10-28T10:56:07.529Z,515.00
2022-10-28T10:57:07.498Z,494.00
2022-10-28T10:58:07.520Z,524.00
2022-10-28T10:59:07.543Z,556.00
2022-10-28T11:00:07.557Z,782.00
2022-10-28T11:01:07.602Z,629.00
2022-10-28T11:02:07.706Z,712.00
2022-10-28T11:03:07.688Z,897.00
2022-10-28T11:04:07.614Z,925.00
2022-10-28T11:05:07.612Z,779.00
2022-10-28T11:06:24.290Z,875.00
2022-10-28T11:07:07.683Z,735.00
2022-10-28T11:08:07.691Z,704.00
2022-10-28T11:09:07.749Z,667.00
2022-10-28T11:10:07.800Z,642.00
2022-10-28T11:11:07.661Z,604.00
2022-10-28T11:12:07.682Z,547.00
2022-10-28T11:13:07.718Z,524.00
2022-10-28T11:14:07.690Z,468.00
2022-10-28T11:15:07.697Z,437.00
2022-10-28T11:16:07.707Z,427.00
2022-10-28T11:17:07.733Z,433.00
2022-10-28T11:18:07.753Z,432.00
2022-10-28T11:19:07.756Z,435.00
2022-10-28T11:20:07.759Z,490.00
2022-10-28T11:21:07.782Z,576.00
2022-10-28T11:22:07.810Z,564.00
2022-10-28T11:23:07.819Z,529.00
2022-10-28T11:24:07.826Z,473.00
2022-10-28T11:25:07.845Z,495.00
2022-10-28T11:26:07.892Z,736.00
2022-10-28T11:27:07.915Z,726.00
2022-10-28T11:28:07.931Z,749.00
2022-10-28T11:29:07.966Z,746.00
2022-10-28T11:30:07.943Z,647.00
2022-10-28T11:32:07.954Z,577.00
2022-10-28T11:33:28.314Z,626.00
2022-10-28T11:34:08.127Z,765.00
2022-10-28T11:35:07.978Z,727.00
2022-10-28T11:36:07.954Z,726.00
2022-10-28T11:37:07.973Z,621.00
2022-10-28T11:38:07.984Z,602.00
2022-10-28T11:39:08.024Z,596.00
2022-10-28T11:40:08.029Z,676.00
2022-10-28T11:41:08.038Z,660.00
2022-10-28T11:42:08.108Z,752.00
2022-10-28T11:43:08.063Z,779.00
2022-10-28T11:44:08.069Z,765.00
2022-10-28T11:45:08.092Z,748.00
2022-10-28T11:46:08.140Z,726.00
2022-10-28T11:47:08.120Z,722.00
2022-10-28T11:48:08.098Z,672.00
2022-10-28T11:49:08.117Z,684.00
2022-10-28T11:50:08.128Z,712.00
2022-10-28T11:51:08.160Z,662.00
2022-10-28T11:52:08.182Z,742.00
2022-10-28T11:53:08.168Z,748.00
2022-10-28T11:54:08.187Z,638.00
2022-10-28T11:55:08.202Z,723.00
2022-10-28T11:56:08.223Z,697.00
2022-10-28T11:57:08.237Z,635.00
2022-10-28T11:58:08.328Z,628.00
2022-10-28T11:59:08.282Z,736.00
2022-10-28T12:00:08.296Z,609.00
2022-10-28T12:01:08.479Z,606.00
2022-10-28T12:02:08.568Z,586.00
2022-10-28T12:03:08.406Z,579.00
2022-10-28T12:04:08.361Z,564.00
2022-10-28T12:05:08.339Z,557.00
2022-10-28T12:06:08.348Z,546.00
2022-10-28T12:07:08.374Z,558.00
2022-10-28T12:08:08.365Z,573.00
2022-10-28T12:09:08.464Z,625.00
2022-10-28T12:10:08.380Z,593.00
2022-10-28T12:11:08.397Z,602.00
2022-10-28T12:12:08.414Z,573.00
2022-10-28T12:13:08.453Z,546.00
2022-10-28T12:14:08.489Z,510.00
2022-10-28T12:15:08.490Z,496.00
2022-10-28T12:16:08.489Z,497.00
2022-10-28T12:17:08.497Z,499.00
2022-10-28T12:18:08.513Z,503.00
2022-10-28T12:19:08.496Z,512.00
2022-10-28T12:20:08.595Z,545.00
2022-10-28T12:21:08.620Z,603.00
2022-10-28T12:22:08.584Z,601.00
2022-10-28T12:23:08.612Z,598.00
2022-10-28T12:24:08.573Z,599.00
2022-10-28T12:25:08.685Z,624.00
2022-10-28T12:26:08.610Z,662.00
2022-10-28T12:27:11.413Z,643.00
2022-10-28T12:28:08.713Z,657.00
2022-10-28T12:29:08.631Z,676.00
2022-10-28T12:30:08.695Z,664.00
2022-10-28T12:31:08.659Z,668.00
2022-10-28T12:32:08.776Z,666.00
2022-10-28T12:33:08.687Z,661.00
2022-10-28T12:34:08.715Z,673.00
2022-10-28T12:35:08.858Z,694.00
2022-10-28T12:36:08.730Z,707.00
2022-10-28T12:37:08.752Z,719.00
2022-10-28T12:38:08.770Z,739.00
2022-10-28T12:39:08.769Z,717.00
2022-10-28T12:40:08.797Z,708.00
2022-10-28T12:41:08.818Z,701.00
2022-10-28T12:42:08.814Z,701.00
2022-10-28T12:43:08.847Z,704.00
2022-10-28T12:44:08.875Z,708.00
2022-10-28T12:45:08.858Z,749.00
2022-10-28T12:46:08.902Z,764.00
2022-10-28T12:47:08.911Z,772.00
2022-10-28T12:48:08.968Z,787.00
2022-10-28T12:49:08.926Z,787.00
2022-10-28T12:50:08.941Z,779.00
2022-10-28T12:51:08.983Z,777.00
2022-10-28T12:52:08.997Z,781.00
2022-10-28T12:53:09.061Z,794.00
2022-10-28T12:54:09.251Z,772.00
2022-10-28T12:55:09.125Z,765.00
2022-10-28T12:56:09.145Z,748.00